Terminal Aerodrome Forecast
Issued by NWS

Home | Current Version | Previous Version | Text Only | Print | Product List | Glossary On
Versions: 1 2 3 4 5 6 7 8 9 10 11 12 13 14 15
000
FTUS44 KLZK 150500 RRA
TAFADF
TAF
KADF 150545Z 1506/1606 00000KT P6SM SCT100 BKN250
     FM151500 06003KT P6SM SCT050 BKN100
     FM151900 VRB04KT P6SM SCT040 BKN250
     FM160100 00000KT P6SM SCT060 BKN100=

USA.gov is the U.S. government's official web portal to all federal, state and local government web resources and services.